KLM284 EHAM-EDDF
Flight info
| Callsign | KLM284 |
|---|---|
| Flight time | 0h 45m |
| Altitude | 35000 |
| Route | EDUPO Z739 MISGO DCT DIXAT DIXAT1A |
| Aircraft | B739/M-SDE2E3FGHIRWXY/LB1 |
Departure
| Time | 2026-05-05 18:29 |
|---|---|
| Airport | Amsterdam Airport Schiphol (EHAM) |
Arrival
| Time | 2026-05-05 19:14 |
|---|---|
| Airport | Frankfurt Main Airport (EDDF) |
| Time | Latitude | Longitude | Altitude | Speed | Heading |
|---|---|---|---|---|---|
| 2026-05-05 18:02 | 52.30669 | 4.76598 | -3 ft | 0 kts | 248° |
| 2026-05-05 18:12 | 52.30671 | 4.76605 | -3 ft | 2 kts | 245° |
| 2026-05-05 18:12 | 52.30677 | 4.76630 | -3 ft | 2 kts | 248° |
| 2026-05-05 18:13 | 52.30683 | 4.76655 | -3 ft | 2 kts | 254° |
| 2026-05-05 18:13 | 52.30683 | 4.76681 | -3 ft | 2 kts | 290° |
| 2026-05-05 18:13 | 52.30676 | 4.76706 | -3 ft | 2 kts | 298° |
| 2026-05-05 18:13 | 52.30668 | 4.76729 | -3 ft | 2 kts | 308° |
| 2026-05-05 18:14 | 52.30658 | 4.76748 | -3 ft | 1 kts | 319° |
| 2026-05-05 18:14 | 52.30654 | 4.76752 | -3 ft | 0 kts | 322° |
| 2026-05-05 18:16 | 52.30671 | 4.76738 | -3 ft | 6 kts | 345° |
| 2026-05-05 18:16 | 52.30706 | 4.76787 | -3 ft | 8 kts | 102° |
| 2026-05-05 18:16 | 52.30671 | 4.76861 | -3 ft | 8 kts | 127° |
| 2026-05-05 18:17 | 52.30654 | 4.76952 | -3 ft | 9 kts | 104° |
| 2026-05-05 18:17 | 52.30600 | 4.77034 | -3 ft | 12 kts | 148° |
| 2026-05-05 18:17 | 52.30526 | 4.77111 | -3 ft | 12 kts | 147° |
| 2026-05-05 18:17 | 52.30469 | 4.77206 | -4 ft | 12 kts | 96° |
| 2026-05-05 18:18 | 52.30506 | 4.77327 | -4 ft | 12 kts | 58° |
| 2026-05-05 18:18 | 52.30548 | 4.77440 | -3 ft | 11 kts | 62° |
| 2026-05-05 18:18 | 52.30595 | 4.77543 | -3 ft | 11 kts | 42° |
| 2026-05-05 18:18 | 52.30669 | 4.77589 | -3 ft | 13 kts | 5° |
| 2026-05-05 18:19 | 52.30760 | 4.77596 | -3 ft | 13 kts | 2° |
| 2026-05-05 18:19 | 52.30850 | 4.77605 | -3 ft | 13 kts | 3° |
| 2026-05-05 18:19 | 52.30937 | 4.77613 | -3 ft | 12 kts | 3° |
| 2026-05-05 18:19 | 52.31024 | 4.77621 | -3 ft | 13 kts | 3° |
| 2026-05-05 18:20 | 52.31118 | 4.77629 | -3 ft | 14 kts | 3° |
| 2026-05-05 18:20 | 52.31222 | 4.77639 | -3 ft | 16 kts | 3° |
| 2026-05-05 18:20 | 52.31334 | 4.77648 | -3 ft | 17 kts | 3° |
| 2026-05-05 18:20 | 52.31449 | 4.77637 | -3 ft | 17 kts | 340° |
| 2026-05-05 18:21 | 52.31536 | 4.77519 | -3 ft | 16 kts | 314° |
| 2026-05-05 18:21 | 52.31578 | 4.77358 | -3 ft | 15 kts | 271° |
| 2026-05-05 18:21 | 52.31572 | 4.77186 | -4 ft | 15 kts | 266° |
| 2026-05-05 18:21 | 52.31566 | 4.77021 | -3 ft | 14 kts | 267° |
| 2026-05-05 18:22 | 52.31561 | 4.76863 | -3 ft | 14 kts | 267° |
| 2026-05-05 18:22 | 52.31556 | 4.76712 | -3 ft | 13 kts | 267° |
| 2026-05-05 18:22 | 52.31551 | 4.76553 | -3 ft | 15 kts | 266° |
| 2026-05-05 18:22 | 52.31544 | 4.76369 | -3 ft | 17 kts | 266° |
| 2026-05-05 18:23 | 52.31537 | 4.76160 | -3 ft | 20 kts | 266° |
| 2026-05-05 18:23 | 52.31527 | 4.75885 | -3 ft | 29 kts | 267° |
| 2026-05-05 18:23 | 52.31516 | 4.75528 | -3 ft | 31 kts | 266° |
| 2026-05-05 18:23 | 52.31503 | 4.75185 | -4 ft | 29 kts | 266° |
| 2026-05-05 18:24 | 52.31491 | 4.74866 | -3 ft | 28 kts | 266° |
| 2026-05-05 18:24 | 52.31480 | 4.74562 | -3 ft | 26 kts | 266° |
| 2026-05-05 18:24 | 52.31470 | 4.74273 | -3 ft | 24 kts | 264° |
| 2026-05-05 18:24 | 52.31356 | 4.74132 | -3 ft | 23 kts | 184° |
| 2026-05-05 18:25 | 52.31195 | 4.74118 | -3 ft | 25 kts | 183° |
| 2026-05-05 18:25 | 52.31072 | 4.74107 | -3 ft | 28 kts | 183° |
| 2026-05-05 18:25 | 52.30812 | 4.74084 | -3 ft | 27 kts | 183° |
| 2026-05-05 18:25 | 52.30628 | 4.74067 | -3 ft | 26 kts | 183° |
| 2026-05-05 18:26 | 52.30455 | 4.74052 | -3 ft | 24 kts | 182° |
| 2026-05-05 18:26 | 52.30333 | 4.74038 | -3 ft | 13 kts | 194° |
| 2026-05-05 18:26 | 52.30263 | 4.73963 | -3 ft | 12 kts | 219° |
| 2026-05-05 18:26 | 52.30228 | 4.73916 | -4 ft | 0 kts | 219° |
| 2026-05-05 18:27 | 52.30211 | 4.73893 | -4 ft | 8 kts | 224° |
| 2026-05-05 18:27 | 52.30202 | 4.73768 | -4 ft | 14 kts | 294° |
| 2026-05-05 18:28 | 52.30328 | 4.73746 | -6 ft | 0 kts | 3° |
| 2026-05-05 18:28 | 52.30400 | 4.73753 | -5 ft | 39 kts | 3° |
| 2026-05-05 18:29 | 52.30917 | 4.73800 | -3 ft | 108 kts | 3° |
| 2026-05-05 18:29 | 52.31855 | 4.73889 | 21 ft | 158 kts | 4° |
| 2026-05-05 18:29 | 52.32983 | 4.74015 | 646 ft | 160 kts | 6° |
| 2026-05-05 18:29 | 52.34073 | 4.74090 | 1502 ft | 156 kts | 16° |
| 2026-05-05 18:30 | 52.35073 | 4.74889 | 1988 ft | 171 kts | 27° |
| 2026-05-05 18:30 | 52.36233 | 4.75769 | 2277 ft | 196 kts | 25° |
| 2026-05-05 18:30 | 52.37531 | 4.76737 | 2594 ft | 214 kts | 29° |
| 2026-05-05 18:30 | 52.38736 | 4.78286 | 2983 ft | 232 kts | 45° |
| 2026-05-05 18:31 | 52.39879 | 4.80232 | 3592 ft | 243 kts | 46° |
| 2026-05-05 18:31 | 52.41049 | 4.82256 | 4464 ft | 246 kts | 45° |
| 2026-05-05 18:31 | 52.42054 | 4.84558 | 5226 ft | 257 kts | 65° |
| 2026-05-05 18:31 | 52.42435 | 4.87476 | 5946 ft | 268 kts | 85° |
| 2026-05-05 18:32 | 52.42470 | 4.90587 | 6694 ft | 276 kts | 89° |
| 2026-05-05 18:32 | 52.42451 | 4.93746 | 7517 ft | 278 kts | 90° |
| 2026-05-05 18:32 | 52.42326 | 4.96925 | 8293 ft | 284 kts | 104° |
| 2026-05-05 18:32 | 52.41435 | 4.99805 | 9073 ft | 288 kts | 131° |
| 2026-05-05 18:33 | 52.39910 | 5.01933 | 9907 ft | 290 kts | 145° |
| 2026-05-05 18:33 | 52.38227 | 5.03824 | 10487 ft | 301 kts | 146° |
| 2026-05-05 18:33 | 52.36468 | 5.05799 | 11014 ft | 311 kts | 146° |
| 2026-05-05 18:33 | 52.34679 | 5.07835 | 11729 ft | 316 kts | 145° |
| 2026-05-05 18:34 | 52.32926 | 5.10019 | 12475 ft | 319 kts | 136° |
| 2026-05-05 18:34 | 52.31395 | 5.12664 | 13237 ft | 322 kts | 131° |
| 2026-05-05 18:34 | 52.29934 | 5.15467 | 13960 ft | 325 kts | 130° |
| 2026-05-05 18:34 | 52.28457 | 5.18281 | 14649 ft | 328 kts | 131° |
| 2026-05-05 18:35 | 52.26944 | 5.21087 | 15350 ft | 330 kts | 132° |
| 2026-05-05 18:35 | 52.25410 | 5.23884 | 16047 ft | 332 kts | 132° |
| 2026-05-05 18:35 | 52.23887 | 5.26734 | 16723 ft | 335 kts | 128° |
| 2026-05-05 18:35 | 52.22474 | 5.29837 | 17413 ft | 338 kts | 126° |
| 2026-05-05 18:36 | 52.21148 | 5.32952 | 18083 ft | 341 kts | 125° |
| 2026-05-05 18:36 | 52.19795 | 5.36162 | 18686 ft | 343 kts | 125° |
| 2026-05-05 18:36 | 52.18437 | 5.39362 | 19302 ft | 345 kts | 126° |
| 2026-05-05 18:36 | 52.17058 | 5.42577 | 19906 ft | 347 kts | 127° |
| 2026-05-05 18:37 | 52.15661 | 5.45807 | 20473 ft | 350 kts | 127° |
| 2026-05-05 18:37 | 52.14246 | 5.49062 | 21049 ft | 353 kts | 127° |
| 2026-05-05 18:37 | 52.12817 | 5.52336 | 21640 ft | 356 kts | 127° |
| 2026-05-05 18:37 | 52.11376 | 5.55634 | 22200 ft | 360 kts | 128° |
| 2026-05-05 18:38 | 52.09918 | 5.58965 | 22768 ft | 363 kts | 128° |
| 2026-05-05 18:38 | 52.08448 | 5.62318 | 23352 ft | 365 kts | 128° |
| 2026-05-05 18:38 | 52.06967 | 5.65689 | 23845 ft | 368 kts | 128° |
| 2026-05-05 18:38 | 52.05441 | 5.69042 | 24326 ft | 369 kts | 131° |
| 2026-05-05 18:39 | 52.03775 | 5.72219 | 24807 ft | 370 kts | 134° |
| 2026-05-05 18:39 | 52.02052 | 5.75347 | 25288 ft | 372 kts | 134° |
| 2026-05-05 18:39 | 52.00352 | 5.78462 | 25766 ft | 374 kts | 134° |
| 2026-05-05 18:39 | 51.98634 | 5.81651 | 26270 ft | 376 kts | 134° |
| 2026-05-05 18:40 | 51.96920 | 5.84856 | 26749 ft | 378 kts | 134° |
| 2026-05-05 18:40 | 51.95190 | 5.88084 | 27204 ft | 380 kts | 134° |
| 2026-05-05 18:40 | 51.93452 | 5.91320 | 27653 ft | 382 kts | 134° |
| 2026-05-05 18:40 | 51.91702 | 5.94575 | 28107 ft | 384 kts | 134° |
| 2026-05-05 18:41 | 51.89942 | 5.97846 | 28552 ft | 386 kts | 134° |
| 2026-05-05 18:41 | 51.88169 | 6.01136 | 28989 ft | 388 kts | 134° |
| 2026-05-05 18:41 | 51.86386 | 6.04439 | 29410 ft | 390 kts | 134° |
| 2026-05-05 18:41 | 51.84592 | 6.07752 | 29819 ft | 393 kts | 134° |
| 2026-05-05 18:42 | 51.82783 | 6.11068 | 30172 ft | 394 kts | 134° |
| 2026-05-05 18:42 | 51.80965 | 6.14390 | 30548 ft | 395 kts | 134° |
| 2026-05-05 18:42 | 51.79144 | 6.17718 | 30921 ft | 396 kts | 134° |
| 2026-05-05 18:42 | 51.77317 | 6.21052 | 31264 ft | 397 kts | 134° |
| 2026-05-05 18:43 | 51.75488 | 6.24389 | 31616 ft | 398 kts | 134° |
| 2026-05-05 18:43 | 51.73653 | 6.27739 | 31926 ft | 399 kts | 134° |
| 2026-05-05 18:43 | 51.71811 | 6.31101 | 32243 ft | 400 kts | 134° |
| 2026-05-05 18:43 | 51.69964 | 6.34470 | 32567 ft | 401 kts | 134° |
| 2026-05-05 18:44 | 51.68114 | 6.37841 | 32865 ft | 402 kts | 135° |
| 2026-05-05 18:44 | 51.66245 | 6.41238 | 32845 ft | 409 kts | 135° |
| 2026-05-05 18:44 | 51.62423 | 6.48167 | 32864 ft | 419 kts | 134° |
| 2026-05-05 18:45 | 51.58502 | 6.55256 | 32868 ft | 429 kts | 134° |
| 2026-05-05 18:45 | 51.54321 | 6.62161 | 32849 ft | 431 kts | 140° |
| 2026-05-05 18:46 | 51.49842 | 6.68555 | 32842 ft | 431 kts | 141° |
| 2026-05-05 18:46 | 51.45352 | 6.74923 | 32837 ft | 431 kts | 140° |
| 2026-05-05 18:47 | 51.40895 | 6.81314 | 32833 ft | 430 kts | 140° |
| 2026-05-05 18:47 | 51.36445 | 6.87721 | 32827 ft | 429 kts | 140° |
| 2026-05-05 18:48 | 51.32010 | 6.94094 | 32835 ft | 428 kts | 140° |
| 2026-05-05 18:48 | 51.27575 | 7.00447 | 32832 ft | 428 kts | 140° |
| 2026-05-05 18:49 | 51.23141 | 7.06782 | 32519 ft | 432 kts | 140° |
| 2026-05-05 18:49 | 51.20878 | 7.10006 | 31741 ft | 436 kts | 140° |
| 2026-05-05 18:49 | 51.18614 | 7.13229 | 30874 ft | 437 kts | 140° |
| 2026-05-05 18:50 | 51.16370 | 7.16420 | 29977 ft | 439 kts | 139° |
| 2026-05-05 18:50 | 51.14086 | 7.19664 | 28908 ft | 441 kts | 139° |
| 2026-05-05 18:50 | 51.11762 | 7.22960 | 27880 ft | 442 kts | 139° |
| 2026-05-05 18:50 | 51.09480 | 7.26195 | 27184 ft | 436 kts | 139° |
| 2026-05-05 18:51 | 51.07250 | 7.29349 | 26456 ft | 433 kts | 139° |
| 2026-05-05 18:51 | 51.04999 | 7.32450 | 26126 ft | 423 kts | 143° |
| 2026-05-05 18:51 | 51.02482 | 7.34806 | 26022 ft | 420 kts | 153° |
| 2026-05-05 18:51 | 50.99897 | 7.36847 | 25869 ft | 408 kts | 154° |
| 2026-05-05 18:52 | 50.97413 | 7.38822 | 25736 ft | 392 kts | 153° |
| 2026-05-05 18:52 | 50.95013 | 7.40759 | 25251 ft | 383 kts | 153° |
| 2026-05-05 18:52 | 50.92650 | 7.42688 | 24690 ft | 382 kts | 153° |
| 2026-05-05 18:52 | 50.90271 | 7.44639 | 23680 ft | 391 kts | 153° |
| 2026-05-05 18:53 | 50.87807 | 7.46658 | 22300 ft | 407 kts | 153° |
| 2026-05-05 18:53 | 50.85259 | 7.48743 | 21324 ft | 412 kts | 153° |
| 2026-05-05 18:53 | 50.82737 | 7.50803 | 20733 ft | 406 kts | 153° |
| 2026-05-05 18:53 | 50.80234 | 7.52844 | 20155 ft | 402 kts | 153° |
| 2026-05-05 18:54 | 50.77757 | 7.54862 | 19596 ft | 401 kts | 153° |
| 2026-05-05 18:54 | 50.75265 | 7.56891 | 19056 ft | 403 kts | 153° |
| 2026-05-05 18:54 | 50.72770 | 7.58920 | 18513 ft | 404 kts | 153° |
| 2026-05-05 18:54 | 50.70273 | 7.60947 | 17907 ft | 403 kts | 153° |
| 2026-05-05 18:55 | 50.67792 | 7.62959 | 17362 ft | 399 kts | 153° |
| 2026-05-05 18:55 | 50.66165 | 7.64277 | 17020 ft | 396 kts | 153° |
| 2026-05-05 18:55 | 50.63820 | 7.66475 | 16664 ft | 390 kts | 143° |
| 2026-05-05 18:55 | 50.61869 | 7.69440 | 16421 ft | 392 kts | 130° |
| 2026-05-05 18:56 | 50.60312 | 7.72977 | 16172 ft | 396 kts | 120° |
| 2026-05-05 18:56 | 50.59039 | 7.76834 | 15919 ft | 396 kts | 118° |
| 2026-05-05 18:56 | 50.57788 | 7.80684 | 15658 ft | 394 kts | 118° |
| 2026-05-05 18:56 | 50.56540 | 7.84513 | 15414 ft | 392 kts | 118° |
| 2026-05-05 18:57 | 50.55289 | 7.88318 | 15159 ft | 391 kts | 118° |
| 2026-05-05 18:57 | 50.54037 | 7.92104 | 14919 ft | 390 kts | 118° |
| 2026-05-05 18:57 | 50.52784 | 7.95866 | 14673 ft | 389 kts | 119° |
| 2026-05-05 18:57 | 50.51528 | 7.99625 | 14435 ft | 388 kts | 119° |
| 2026-05-05 18:58 | 50.50275 | 8.03365 | 14191 ft | 387 kts | 119° |
| 2026-05-05 18:58 | 50.49016 | 8.07116 | 13955 ft | 387 kts | 119° |
| 2026-05-05 18:58 | 50.47761 | 8.10846 | 13720 ft | 387 kts | 119° |
| 2026-05-05 18:58 | 50.46506 | 8.14574 | 13468 ft | 386 kts | 119° |
| 2026-05-05 18:59 | 50.45251 | 8.18293 | 13198 ft | 385 kts | 119° |
| 2026-05-05 18:59 | 50.43998 | 8.22005 | 12940 ft | 384 kts | 120° |
| 2026-05-05 18:59 | 50.42749 | 8.25695 | 12684 ft | 382 kts | 120° |
| 2026-05-05 18:59 | 50.41504 | 8.29370 | 12423 ft | 381 kts | 120° |
| 2026-05-05 19:00 | 50.40261 | 8.33035 | 12163 ft | 380 kts | 120° |
| 2026-05-05 19:00 | 50.39038 | 8.36638 | 11920 ft | 378 kts | 120° |
| 2026-05-05 19:00 | 50.37803 | 8.40268 | 11657 ft | 377 kts | 120° |
| 2026-05-05 19:00 | 50.36568 | 8.43892 | 11406 ft | 376 kts | 120° |
| 2026-05-05 19:01 | 50.35338 | 8.47499 | 11156 ft | 375 kts | 120° |
| 2026-05-05 19:01 | 50.34110 | 8.51093 | 10903 ft | 374 kts | 120° |
| 2026-05-05 19:01 | 50.32885 | 8.54673 | 10651 ft | 373 kts | 120° |
| 2026-05-05 19:01 | 50.31663 | 8.58242 | 10405 ft | 371 kts | 120° |
| 2026-05-05 19:02 | 50.30443 | 8.61798 | 10161 ft | 370 kts | 120° |
| 2026-05-05 19:02 | 50.29230 | 8.65331 | 9917 ft | 369 kts | 120° |
| 2026-05-05 19:02 | 50.28016 | 8.68859 | 9683 ft | 367 kts | 120° |
| 2026-05-05 19:02 | 50.26822 | 8.72329 | 9398 ft | 357 kts | 120° |
| 2026-05-05 19:03 | 50.25664 | 8.75693 | 9126 ft | 345 kts | 120° |
| 2026-05-05 19:03 | 50.24541 | 8.78946 | 8849 ft | 335 kts | 121° |
| 2026-05-05 19:03 | 50.23451 | 8.82097 | 8587 ft | 326 kts | 121° |
| 2026-05-05 19:03 | 50.22427 | 8.85231 | 8314 ft | 324 kts | 112° |
| 2026-05-05 19:04 | 50.22074 | 8.88775 | 8082 ft | 341 kts | 88° |
| 2026-05-05 19:04 | 50.22349 | 8.92447 | 7848 ft | 337 kts | 84° |
| 2026-05-05 19:04 | 50.22655 | 8.95985 | 7560 ft | 320 kts | 84° |
| 2026-05-05 19:04 | 50.22949 | 8.99309 | 7530 ft | 296 kts | 83° |
| 2026-05-05 19:05 | 50.23224 | 9.02381 | 7549 ft | 278 kts | 83° |
| 2026-05-05 19:05 | 50.23490 | 9.05292 | 7566 ft | 263 kts | 83° |
| 2026-05-05 19:05 | 50.23767 | 9.08057 | 7564 ft | 253 kts | 90° |
| 2026-05-05 19:05 | 50.23432 | 9.10670 | 7582 ft | 245 kts | 121° |
| 2026-05-05 19:06 | 50.22310 | 9.12616 | 7607 ft | 243 kts | 152° |
| 2026-05-05 19:06 | 50.20727 | 9.13419 | 7597 ft | 241 kts | 181° |
| 2026-05-05 19:06 | 50.19102 | 9.12880 | 7331 ft | 245 kts | 209° |
| 2026-05-05 19:06 | 50.17734 | 9.11296 | 6855 ft | 245 kts | 222° |
| 2026-05-05 19:07 | 50.16477 | 9.09492 | 6359 ft | 245 kts | 225° |
| 2026-05-05 19:07 | 50.15590 | 9.07266 | 5827 ft | 246 kts | 251° |
| 2026-05-05 19:07 | 50.15073 | 9.04720 | 5318 ft | 246 kts | 250° |
| 2026-05-05 19:07 | 50.14481 | 9.02153 | 4576 ft | 256 kts | 249° |
| 2026-05-05 19:08 | 50.13864 | 8.99599 | 4275 ft | 246 kts | 249° |
| 2026-05-05 19:08 | 50.13274 | 8.97172 | 4121 ft | 232 kts | 249° |
| 2026-05-05 19:08 | 50.12719 | 8.94890 | 4013 ft | 217 kts | 249° |
| 2026-05-05 19:08 | 50.12213 | 8.92799 | 4019 ft | 200 kts | 249° |
| 2026-05-05 19:09 | 50.11736 | 8.90829 | 3986 ft | 184 kts | 249° |
| 2026-05-05 19:09 | 50.11285 | 8.88964 | 3999 ft | 184 kts | 249° |
| 2026-05-05 19:09 | 50.10842 | 8.87130 | 3999 ft | 182 kts | 249° |
| 2026-05-05 19:09 | 50.10394 | 8.85277 | 3941 ft | 184 kts | 249° |
| 2026-05-05 19:10 | 50.09939 | 8.83389 | 3711 ft | 186 kts | 249° |
| 2026-05-05 19:10 | 50.09485 | 8.81507 | 3457 ft | 185 kts | 249° |
| 2026-05-05 19:10 | 50.09039 | 8.79654 | 3212 ft | 180 kts | 250° |
| 2026-05-05 19:10 | 50.08601 | 8.77833 | 2973 ft | 180 kts | 249° |
| 2026-05-05 19:11 | 50.08161 | 8.76001 | 2731 ft | 181 kts | 250° |
| 2026-05-05 19:11 | 50.07720 | 8.74169 | 2494 ft | 180 kts | 250° |
| 2026-05-05 19:11 | 50.07282 | 8.72345 | 2242 ft | 180 kts | 250° |
| 2026-05-05 19:11 | 50.06846 | 8.70527 | 2004 ft | 178 kts | 249° |
| 2026-05-05 19:12 | 50.06424 | 8.68765 | 1772 ft | 166 kts | 250° |
| 2026-05-05 19:12 | 50.06042 | 8.67171 | 1550 ft | 149 kts | 249° |
| 2026-05-05 19:12 | 50.05690 | 8.65699 | 1350 ft | 144 kts | 249° |
| 2026-05-05 19:12 | 50.05341 | 8.64245 | 1153 ft | 145 kts | 249° |
| 2026-05-05 19:13 | 50.04989 | 8.62769 | 950 ft | 146 kts | 249° |
| 2026-05-05 19:13 | 50.04635 | 8.61288 | 758 ft | 146 kts | 249° |
| 2026-05-05 19:13 | 50.04282 | 8.59811 | 565 ft | 146 kts | 249° |
| 2026-05-05 19:13 | 50.03931 | 8.58336 | 381 ft | 144 kts | 249° |
| 2026-05-05 19:14 | 50.03632 | 8.57091 | 360 ft | 93 kts | 250° |
| 2026-05-05 19:14 | 50.03476 | 8.56433 | 361 ft | 50 kts | 250° |
| 2026-05-05 19:14 | 50.03436 | 8.56062 | 361 ft | 23 kts | 280° |
| 2026-05-05 19:14 | 50.03454 | 8.55898 | 356 ft | 6 kts | 279° |
| 2026-05-05 19:15 | 50.03455 | 8.55896 | 356 ft | 0 kts | 279° |
| 2026-05-05 19:16 | 50.03455 | 8.55888 | 356 ft | 2 kts | 279° |
| 2026-05-05 19:16 | 50.03460 | 8.55848 | 358 ft | 6 kts | 279° |
| 2026-05-05 19:16 | 50.03466 | 8.55797 | 361 ft | 0 kts | 280° |
| 2026-05-05 19:18 | 50.03466 | 8.55793 | 360 ft | 2 kts | 280° |
| 2026-05-05 19:18 | 50.03484 | 8.55720 | 363 ft | 12 kts | 306° |
| 2026-05-05 19:19 | 50.03558 | 8.55762 | 359 ft | 17 kts | 57° |
| 2026-05-05 19:19 | 50.03605 | 8.55949 | 361 ft | 19 kts | 70° |
| 2026-05-05 19:19 | 50.03649 | 8.56135 | 361 ft | 18 kts | 70° |
| 2026-05-05 19:19 | 50.03692 | 8.56314 | 364 ft | 17 kts | 69° |
| 2026-05-05 19:20 | 50.03734 | 8.56487 | 363 ft | 17 kts | 69° |
| 2026-05-05 19:20 | 50.03779 | 8.56674 | 359 ft | 20 kts | 69° |
| 2026-05-05 19:20 | 50.03829 | 8.56884 | 363 ft | 22 kts | 69° |
| 2026-05-05 19:20 | 50.03883 | 8.57108 | 361 ft | 23 kts | 70° |
| 2026-05-05 19:21 | 50.03941 | 8.57353 | 363 ft | 25 kts | 70° |
| 2026-05-05 19:21 | 50.04002 | 8.57608 | 364 ft | 26 kts | 69° |
| 2026-05-05 19:21 | 50.04062 | 8.57857 | 361 ft | 24 kts | 69° |
| 2026-05-05 19:21 | 50.04118 | 8.58090 | 361 ft | 23 kts | 69° |
| 2026-05-05 19:22 | 50.04172 | 8.58317 | 363 ft | 22 kts | 70° |
| 2026-05-05 19:22 | 50.04225 | 8.58537 | 365 ft | 21 kts | 70° |
| 2026-05-05 19:22 | 50.04277 | 8.58754 | 363 ft | 22 kts | 70° |
| 2026-05-05 19:22 | 50.04334 | 8.58989 | 363 ft | 25 kts | 69° |
| 2026-05-05 19:23 | 50.04397 | 8.59250 | 360 ft | 26 kts | 69° |
| 2026-05-05 19:23 | 50.04472 | 8.59466 | 364 ft | 20 kts | 21° |
| 2026-05-05 19:23 | 50.04603 | 8.59456 | 360 ft | 19 kts | 354° |
| 2026-05-05 19:23 | 50.04730 | 8.59427 | 360 ft | 18 kts | 344° |
| 2026-05-05 19:24 | 50.04828 | 8.59368 | 361 ft | 1 kts | 337° |